Time;durP1;ratioP1;P1;durP2;ratioP2;P2;SDS_P1;SDS_P2;PMS_P1;PMS_P2;Temp;Humidity;BMP_temperature;BMP_pressure;BME280_temperature;BME280_humidity;BME280_pressure;Samples;Min_cycle;Max_cycle;Signal;HPM_P1;HPM_P2
2023/12/16 00:02:04;;;;;;;4.00;1.83;;;16.80;69.30;;;;;;6021867;22;45952;-60
2023/12/16 00:04:47;;;;;;;3.80;1.65;;;16.80;69.30;;;;;;6049181;22;44749;-60
2023/12/16 00:07:15;;;;;;;3.83;1.92;;;16.80;69.10;;;;;;5980854;22;44911;-60
2023/12/16 00:09:43;;;;;;;5.68;1.85;;;16.80;69.00;;;;;;5956352;22;44693;-60
2023/12/16 00:12:16;;;;;;;6.22;2.13;;;16.80;68.00;;;;;;5983384;22;45549;-60
2023/12/16 00:14:51;;;;;;;6.45;2.10;;;16.80;66.80;;;;;;5968416;22;44888;-60
2023/12/16 00:17:39;;;;;;;8.55;2.10;;;16.80;66.50;;;;;;5965226;22;44696;-60
2023/12/16 00:20:09;;;;;;;4.78;2.00;;;16.80;66.00;;;;;;5983051;22;45134;-60
2023/12/16 00:22:45;;;;;;;4.38;2.05;;;16.80;65.70;;;;;;5970900;22;46249;-60
2023/12/16 00:27:53;;;;;;;4.78;1.92;;;16.80;66.10;;;;;;6015919;22;44781;-60
2023/12/16 00:30:22;;;;;;;6.82;2.20;;;16.80;66.50;;;;;;5997737;22;44697;-60
2023/12/16 00:33:01;;;;;;;6.53;2.00;;;16.80;67.00;;;;;;5984518;22;46184;-60
2023/12/16 00:35:30;;;;;;;5.75;1.90;;;16.90;67.10;;;;;;5985130;22;44891;-60
2023/12/16 00:37:58;;;;;;;4.97;1.90;;;16.90;67.40;;;;;;5979449;22;44839;-60
2023/12/16 00:40:50;;;;;;;4.22;1.60;;;16.80;67.50;;;;;;6009847;22;45040;-60
2023/12/16 00:43:31;;;;;;;6.75;1.63;;;16.90;67.70;;;;;;6042120;22;45647;-59
2023/12/16 00:45:58;;;;;;;5.20;2.10;;;16.90;67.70;;;;;;5984624;22;45061;-60
2023/12/16 00:48:36;;;;;;;5.40;2.10;;;16.90;67.80;;;;;;6032320;22;44692;-60
2023/12/16 00:51:07;;;;;;;5.28;2.00;;;16.90;67.90;;;;;;6026948;22;44977;-59
2023/12/16 00:53:36;;;;;;;4.72;1.90;;;16.90;67.80;;;;;;6013166;22;47167;-59
2023/12/16 00:56:05;;;;;;;6.85;2.25;;;16.80;67.70;;;;;;6027483;22;44843;-59
2023/12/16 00:58:32;;;;;;;4.45;1.90;;;16.90;67.80;;;;;;6015227;22;44784;-59
2023/12/16 01:00:59;;;;;;;7.10;2.05;;;16.90;68.20;;;;;;6009947;22;44798;-59
2023/12/16 01:03:52;;;;;;;3.17;1.30;;;16.90;68.20;;;;;;6017654;22;45404;-59
2023/12/16 01:06:29;;;;;;;5.38;1.40;;;16.90;68.30;;;;;;6012490;22;44855;-59
2023/12/16 01:08:59;;;;;;;4.63;1.70;;;16.90;68.60;;;;;;6034269;22;44667;-59
2023/12/16 01:11:25;;;;;;;6.30;1.77;;;16.90;68.60;;;;;;6004841;22;44758;-59
2023/12/16 01:13:52;;;;;;;4.43;1.80;;;16.90;68.80;;;;;;5989733;22;45121;-59
2023/12/16 01:16:29;;;;;;;5.03;1.88;;;16.90;68.50;;;;;;6046347;22;45071;-59
2023/12/16 01:18:57;;;;;;;3.88;1.60;;;16.90;68.20;;;;;;6010576;22;44744;-59
2023/12/16 01:21:46;;;;;;;4.28;1.73;;;16.90;68.20;;;;;;5974322;22;44939;-59
2023/12/16 01:24:24;;;;;;;4.20;1.60;;;16.90;68.00;;;;;;6033418;22;45752;-59
2023/12/16 01:26:54;;;;;;;4.90;1.63;;;16.90;67.80;;;;;;6062558;22;44754;-59
2023/12/16 01:29:23;;;;;;;4.65;1.90;;;16.90;67.80;;;;;;6036573;22;44734;-59
2023/12/16 01:31:52;;;;;;;6.63;2.17;;;16.90;67.60;;;;;;6018006;22;44991;-59
2023/12/16 01:34:19;;;;;;;4.13;1.63;;;16.90;67.60;;;;;;5997792;22;46661;-59
2023/12/16 01:36:50;;;;;;;5.85;2.10;;;16.90;67.80;;;;;;6033802;22;44828;-59
2023/12/16 01:39:18;;;;;;;7.50;2.05;;;16.90;67.50;;;;;;6013301;22;44808;-59
2023/12/16 01:42:07;;;;;;;6.55;1.95;;;16.90;67.60;;;;;;6057147;22;44699;-59
2023/12/16 01:44:35;;;;;;;4.32;1.83;;;16.90;67.60;;;;;;6000236;22;46222;-59
2023/12/16 01:47:01;;;;;;;5.43;1.48;;;16.90;67.50;;;;;;5985214;22;44798;-59
2023/12/16 01:49:31;;;;;;;6.85;1.80;;;16.90;68.60;;;;;;6059854;22;44736;-59
2023/12/16 01:52:01;;;;;;;4.18;1.50;;;16.90;67.80;;;;;;6023138;22;44767;-59
2023/12/16 01:54:39;;;;;;;3.17;1.70;;;16.90;67.90;;;;;;6026183;22;46485;-59
2023/12/16 01:57:31;;;;;;;6.72;2.10;;;16.90;68.20;;;;;;6049292;22;44729;-59
2023/12/16 01:59:58;;;;;;;2.65;1.65;;;16.90;67.90;;;;;;5994941;22;44859;-59
2023/12/16 02:02:27;;;;;;;4.15;1.67;;;16.90;68.30;;;;;;6023086;22;45052;-59
2023/12/16 02:04:56;;;;;;;5.65;1.52;;;16.90;68.30;;;;;;5976200;22;45399;-59
2023/12/16 02:07:25;;;;;;;5.65;1.35;;;16.90;68.50;;;;;;6005424;22;44758;-59
2023/12/16 02:09:52;;;;;;;6.35;1.80;;;16.90;68.50;;;;;;5999570;22;44866;-59
2023/12/16 02:12:19;;;;;;;6.07;2.05;;;16.90;68.30;;;;;;6010880;22;44926;-59
2023/12/16 02:14:56;;;;;;;6.43;1.50;;;16.90;68.00;;;;;;6003397;22;45568;-59
2023/12/16 02:17:33;;;;;;;4.20;1.92;;;16.90;68.00;;;;;;6014216;22;44741;-59
2023/12/16 02:20:01;;;;;;;5.38;1.95;;;16.90;67.90;;;;;;6016059;22;44642;-59
2023/12/16 02:22:37;;;;;;;3.03;1.40;;;16.90;68.10;;;;;;5992265;22;45001;-59
2023/12/16 02:25:21;;;;;;;4.78;1.50;;;16.90;67.90;;;;;;6053725;22;46555;-59
2023/12/16 02:27:49;;;;;;;4.47;1.40;;;16.90;68.00;;;;;;5999597;22;44813;-59
2023/12/16 02:33:14;;;;;;;3.83;1.23;;;16.90;68.10;;;;;;5953882;22;45385;-59
2023/12/16 02:35:49;;;;;;;4.40;1.50;;;16.90;67.80;;;;;;5988477;22;45577;-59
2023/12/16 02:38:38;;;;;;;5.80;1.60;;;16.80;66.30;;;;;;6001520;22;44745;-59
2023/12/16 02:41:23;;;;;;;5.40;1.80;;;16.80;65.20;;;;;;5957048;22;44920;-59
2023/12/16 02:43:53;;;;;;;4.55;1.70;;;16.80;65.30;;;;;;6005292;22;44689;-59
2023/12/16 02:46:20;;;;;;;6.50;1.70;;;16.80;64.60;;;;;;5969538;22;46202;-59
2023/12/16 02:49:11;;;;;;;6.32;1.60;;;16.90;64.60;;;;;;5984240;22;44827;-59
2023/12/16 02:51:38;;;;;;;3.60;1.77;;;16.90;64.00;;;;;;6000600;22;44920;-59
2023/12/16 02:54:09;;;;;;;6.30;1.83;;;16.90;64.00;;;;;;5985425;22;44853;-59
2023/12/16 02:56:43;;;;;;;4.40;2.03;;;16.90;63.60;;;;;;5995655;22;46952;-59
2023/12/16 02:59:16;;;;;;;5.88;1.67;;;16.80;62.80;;;;;;5985604;22;44819;-59
2023/12/16 03:01:43;;;;;;;3.35;1.83;;;16.80;62.10;;;;;;5965751;22;44745;-59
2023/12/16 03:06:56;;;;;;;4.13;1.60;;;16.80;61.40;;;;;;5974321;22;45110;-59
2023/12/16 03:09:27;;;;;;;5.03;1.70;;;16.80;61.40;;;;;;6000726;22;44849;-59
2023/12/16 03:12:04;;;;;;;5.07;1.40;;;16.80;61.60;;;;;;5976336;22;44746;-59
2023/12/16 03:14:53;;;;;;;5.60;1.60;;;16.80;61.30;;;;;;6019996;22;44928;-59
2023/12/16 03:17:36;;;;;;;6.93;1.50;;;16.70;61.80;;;;;;6014301;22;45921;-59
2023/12/16 03:20:05;;;;;;;4.25;1.50;;;16.70;60.40;;;;;;5974674;22;45210;-59
2023/12/16 03:22:33;;;;;;;5.18;1.50;;;16.70;60.30;;;;;;5964032;22;44886;-59
2023/12/16 03:25:11;;;;;;;5.80;1.65;;;16.70;60.00;;;;;;5996546;22;44986;-59
2023/12/16 03:27:40;;;;;;;5.18;1.60;;;16.80;60.30;;;;;;5982508;22;46763;-59
2023/12/16 03:30:10;;;;;;;5.15;1.60;;;16.80;60.20;;;;;;5986556;22;44823;-59
2023/12/16 03:32:39;;;;;;;10.15;2.22;;;16.80;59.60;;;;;;5984209;22;45055;-59
2023/12/16 03:35:20;;;;;;;5.78;1.40;;;16.80;59.40;;;;;;5978268;22;44640;-59
2023/12/16 03:37:47;;;;;;;4.32;1.30;;;16.80;59.80;;;;;;5975739;22;45523;-59
2023/12/16 03:40:14;;;;;;;3.97;1.20;;;16.80;59.40;;;;;;6008351;22;44703;-59
2023/12/16 03:42:42;;;;;;;8.10;1.67;;;16.80;59.60;;;;;;5968324;22;45149;-59
2023/12/16 03:45:10;;;;;;;4.70;1.60;;;16.80;59.10;;;;;;5987225;22;44768;-59
2023/12/16 03:50:17;;;;;;;6.53;1.50;;;16.70;58.20;;;;;;5971793;22;44779;-59
2023/12/16 03:52:45;;;;;;;3.38;1.35;;;16.70;58.10;;;;;;5993514;22;44704;-59
2023/12/16 03:55:12;;;;;;;3.55;1.30;;;16.70;58.80;;;;;;5976106;22;45088;-59
2023/12/16 03:57:42;;;;;;;4.60;1.50;;;16.70;58.00;;;;;;6014638;22;46798;-59
2023/12/16 04:00:11;;;;;;;3.80;1.50;;;16.70;57.80;;;;;;5981718;22;44856;-59
2023/12/16 04:03:01;;;;;;;5.78;1.42;;;16.70;58.00;;;;;;5983736;22;44808;-59
2023/12/16 04:05:39;;;;;;;3.92;1.30;;;16.70;57.80;;;;;;5985305;22;44863;-59
2023/12/16 04:08:12;;;;;;;7.50;1.80;;;16.70;57.60;;;;;;6005415;22;45435;-59
2023/12/16 04:11:03;;;;;;;4.18;1.60;;;16.70;57.70;;;;;;6001692;22;44706;-59
2023/12/16 04:13:32;;;;;;;3.97;1.08;;;16.70;57.70;;;;;;5984835;22;44639;-59
2023/12/16 04:16:01;;;;;;;3.95;1.42;;;16.70;57.50;;;;;;5982373;22;44874;-59
2023/12/16 04:18:29;;;;;;;4.20;1.52;;;16.70;57.00;;;;;;6011584;22;45707;-59
2023/12/16 04:20:56;;;;;;;3.95;1.40;;;16.70;57.00;;;;;;5988100;22;44749;-59
2023/12/16 04:23:24;;;;;;;3.35;1.20;;;16.70;57.10;;;;;;5983296;22;44918;-59
2023/12/16 04:25:52;;;;;;;5.70;1.30;;;16.70;56.90;;;;;;5989138;22;44995;-59
2023/12/16 04:28:19;;;;;;;4.22;1.10;;;16.70;56.80;;;;;;5971673;22;46067;-59
2023/12/16 04:30:48;;;;;;;3.97;1.17;;;16.70;56.60;;;;;;5993521;22;44739;-59
2023/12/16 04:33:17;;;;;;;4.13;1.52;;;16.70;56.60;;;;;;5989778;22;45111;-59
2023/12/16 04:35:44;;;;;;;5.53;1.42;;;16.70;56.40;;;;;;5981126;22;45067;-59
2023/12/16 04:38:11;;;;;;;5.65;1.30;;;16.70;56.40;;;;;;5981805;22;46457;-58
2023/12/16 04:40:38;;;;;;;6.75;1.65;;;16.60;56.20;;;;;;5980920;22;44826;-58
2023/12/16 04:43:20;;;;;;;2.50;1.15;;;16.70;56.60;;;;;;5980853;22;44786;-58
2023/12/16 04:45:49;;;;;;;4.68;1.23;;;16.60;55.90;;;;;;5985890;22;45129;-58
2023/12/16 04:48:17;;;;;;;6.82;1.83;;;16.60;56.10;;;;;;5973257;22;45673;-58
2023/12/16 04:50:54;;;;;;;7.20;1.50;;;16.60;55.90;;;;;;5978406;22;44811;-58
2023/12/16 04:53:21;;;;;;;5.13;1.65;;;16.60;55.90;;;;;;5965809;22;44920;-59
2023/12/16 04:55:52;;;;;;;6.70;1.40;;;16.60;55.70;;;;;;5991007;22;44801;-58
2023/12/16 04:58:36;;;;;;;4.47;1.45;;;16.60;55.80;;;;;;6078338;22;45160;-58
2023/12/16 05:01:05;;;;;;;6.25;1.35;;;16.60;55.60;;;;;;5978387;22;44823;-58
2023/12/16 05:03:32;;;;;;;4.05;1.20;;;16.60;55.50;;;;;;5986815;22;44639;-58
2023/12/16 05:06:00;;;;;;;4.95;1.40;;;16.60;55.40;;;;;;5982376;22;45076;-58
2023/12/16 05:08:27;;;;;;;3.42;1.38;;;16.70;55.50;;;;;;5997123;22;46546;-58
2023/12/16 05:10:54;;;;;;;3.85;1.60;;;16.70;55.50;;;;;;5986283;22;44893;-58
2023/12/16 05:13:34;;;;;;;5.68;1.60;;;16.70;55.40;;;;;;6004492;22;44870;-58
2023/12/16 05:16:09;;;;;;;2.78;1.15;;;16.70;55.20;;;;;;5980623;22;44671;-58
2023/12/16 05:18:37;;;;;;;2.80;1.02;;;16.70;55.50;;;;;;5971896;22;46607;-58
2023/12/16 05:21:21;;;;;;;4.13;1.48;;;16.70;55.10;;;;;;5973874;22;44739;-58
2023/12/16 05:23:50;;;;;;;4.95;1.50;;;16.70;54.80;;;;;;5988468;22;44652;-58
2023/12/16 05:26:41;;;;;;;5.43;1.30;;;16.60;54.80;;;;;;6005301;22;44699;-58
2023/12/16 05:29:30;;;;;;;5.40;1.70;;;16.60;54.70;;;;;;5991658;22;46432;-58
2023/12/16 05:31:58;;;;;;;5.15;1.60;;;16.60;54.70;;;;;;5977640;22;44798;-58
2023/12/16 05:34:26;;;;;;;5.45;1.45;;;16.60;56.00;;;;;;5987187;22;44858;-58
2023/12/16 05:37:11;;;;;;;3.22;1.13;;;16.60;55.00;;;;;;6024028;22;44758;-58
2023/12/16 05:39:55;;;;;;;4.10;1.17;;;16.60;55.00;;;;;;5958288;22;46406;-58
2023/12/16 05:42:22;;;;;;;5.70;1.75;;;16.60;55.00;;;;;;5969707;22;44889;-58
2023/12/16 05:44:50;;;;;;;5.47;1.50;;;16.60;55.00;;;;;;5981154;22;44714;-58
2023/12/16 05:50:17;;;;;;;5.80;1.27;;;16.60;54.50;;;;;;5955608;22;45252;-58
2023/12/16 05:52:59;;;;;;;3.55;1.30;;;16.60;55.60;;;;;;5969071;22;44857;-58
2023/12/16 05:55:27;;;;;;;4.05;1.40;;;16.60;54.30;;;;;;5969753;22;44889;-59
2023/12/16 05:57:54;;;;;;;4.93;1.60;;;16.60;54.50;;;;;;5974872;22;44854;-58
2023/12/16 06:00:45;;;;;;;3.00;1.45;;;16.60;54.10;;;;;;5984185;22;45600;-58
2023/12/16 06:03:14;;;;;;;6.20;1.17;;;16.70;54.30;;;;;;5978440;22;44846;-58
2023/12/16 06:05:41;;;;;;;4.97;1.73;;;16.60;54.30;;;;;;5968443;22;44834;-58
2023/12/16 06:08:10;;;;;;;2.92;1.35;;;16.60;54.40;;;;;;5989108;22;44776;-58
2023/12/16 06:10:38;;;;;;;1.98;0.93;;;16.60;54.20;;;;;;5956739;22;45134;-58
2023/12/16 06:13:05;;;;;;;6.68;1.17;;;16.60;54.20;;;;;;5989915;22;44698;-58
2023/12/16 06:15:47;;;;;;;2.45;1.20;;;16.60;54.30;;;;;;5975204;22;44822;-58
2023/12/16 06:18:15;;;;;;;4.18;1.50;;;16.60;54.40;;;;;;5973775;22;44931;-58
2023/12/16 06:20:49;;;;;;;5.63;1.33;;;16.60;54.40;;;;;;5983690;22;45156;-58
2023/12/16 06:23:19;;;;;;;9.75;1.52;;;16.60;54.60;;;;;;5985181;22;45084;-59
2023/12/16 06:25:59;;;;;;;5.78;1.60;;;16.60;54.40;;;;;;5996158;22;44757;-59
2023/12/16 06:28:55;;;;;;;4.22;1.27;;;16.60;54.40;;;;;;6002920;22;44987;-59
2023/12/16 06:31:28;;;;;;;7.68;1.52;;;16.60;54.30;;;;;;5981751;22;46426;-59
2023/12/16 06:33:56;;;;;;;2.90;1.25;;;16.60;54.50;;;;;;5983504;22;44739;-59
2023/12/16 06:36:23;;;;;;;4.82;1.60;;;16.60;54.20;;;;;;5984341;22;44923;-59
2023/12/16 06:38:49;;;;;;;3.90;1.20;;;16.60;54.20;;;;;;5976483;22;45098;-59
2023/12/16 06:41:18;;;;;;;4.78;1.23;;;16.60;53.80;;;;;;5977569;22;46414;-59
2023/12/16 06:43:46;;;;;;;4.13;1.30;;;16.60;54.00;;;;;;5972193;22;44957;-59
2023/12/16 06:46:19;;;;;;;4.78;1.33;;;16.60;54.10;;;;;;5989940;22;44848;-59
2023/12/16 06:48:49;;;;;;;5.10;1.80;;;16.60;54.20;;;;;;5954339;22;44693;-59
2023/12/16 06:51:22;;;;;;;2.97;1.23;;;16.60;55.20;;;;;;6006733;22;45364;-59
2023/12/16 06:53:49;;;;;;;3.10;1.00;;;16.60;54.40;;;;;;5991686;22;44772;-59
2023/12/16 06:56:19;;;;;;;5.53;1.70;;;16.60;53.90;;;;;;5990353;22;44827;-59
2023/12/16 06:59:00;;;;;;;5.50;1.30;;;16.60;53.90;;;;;;5969242;22;45051;-59
2023/12/16 07:01:26;;;;;;;4.15;1.58;;;16.60;54.20;;;;;;5993641;22;46174;-59
2023/12/16 07:03:54;;;;;;;5.45;1.33;;;16.50;54.40;;;;;;5977036;22;44857;-59
2023/12/16 07:06:39;;;;;;;5.95;1.50;;;16.50;54.40;;;;;;6003211;22;44783;-59
2023/12/16 07:09:17;;;;;;;6.93;1.67;;;16.50;55.70;;;;;;5977828;22;44844;-59
2023/12/16 07:11:44;;;;;;;7.43;1.52;;;16.50;54.60;;;;;;5993656;22;46685;-59
2023/12/16 07:14:12;;;;;;;6.40;1.80;;;16.50;54.80;;;;;;5965729;22;45346;-59
2023/12/16 07:16:39;;;;;;;4.57;1.52;;;16.50;54.80;;;;;;5991953;22;44761;-59
2023/12/16 07:19:07;;;;;;;5.40;1.70;;;16.50;55.00;;;;;;5981721;22;44838;-59
2023/12/16 07:21:46;;;;;;;4.50;1.40;;;16.50;54.50;;;;;;6010085;22;46752;-59
2023/12/16 07:24:14;;;;;;;8.80;1.80;;;16.50;54.40;;;;;;5992664;22;44907;-59
2023/12/16 07:26:41;;;;;;;3.55;1.35;;;16.50;54.00;;;;;;5979195;22;44888;-59
2023/12/16 07:29:08;;;;;;;5.95;1.80;;;16.50;54.10;;;;;;6005639;22;44711;-59
2023/12/16 07:31:35;;;;;;;5.35;1.60;;;16.50;54.30;;;;;;5971219;22;45409;-59
2023/12/16 07:34:05;;;;;;;4.50;1.58;;;16.50;53.90;;;;;;6013585;22;44789;-59
2023/12/16 07:36:34;;;;;;;4.25;1.73;;;16.50;53.70;;;;;;5988123;22;44867;-59
2023/12/16 07:39:16;;;;;;;7.00;1.95;;;16.50;53.40;;;;;;5977876;22;44819;-59
2023/12/16 07:41:53;;;;;;;5.60;1.48;;;16.50;53.70;;;;;;5986783;22;45616;-59
2023/12/16 07:44:34;;;;;;;3.63;1.60;;;16.50;53.40;;;;;;5987853;22;44886;-59
2023/12/16 07:49:42;;;;;;;5.38;1.80;;;16.50;53.60;;;;;;5991516;22;44862;-59
2023/12/16 07:52:26;;;;;;;5.85;2.22;;;16.50;53.70;;;;;;5975061;22;46203;-59
2023/12/16 08:01:24;;;;;;;4.93;1.35;;;16.50;53.50;;;;;;4901914;27;44863;-59
2023/12/16 08:04:14;;;;;;;2.38;1.15;;;16.50;53.60;;;;;;4899368;27;44710;-59
2023/12/16 08:07:00;;;;;;;4.05;1.23;;;16.50;53.00;;;;;;4914315;27;44989;-59
2023/12/16 08:09:38;;;;;;;7.28;1.52;;;16.50;52.90;;;;;;4900171;27;46702;-59
2023/12/16 08:12:06;;;;;;;6.20;1.20;;;16.50;53.10;;;;;;4904531;27;44895;-59
2023/12/16 08:14:35;;;;;;;8.85;1.50;;;16.50;55.20;;;;;;4910945;27;44832;-59
2023/12/16 08:17:02;;;;;;;4.53;1.40;;;16.50;54.80;;;;;;4892060;27;45196;-59
2023/12/16 08:19:31;;;;;;;4.82;1.25;;;16.50;54.60;;;;;;4916018;27;45516;-59
2023/12/16 08:21:59;;;;;;;5.32;1.45;;;16.50;54.60;;;;;;4881957;27;44784;-59
2023/12/16 08:24:29;;;;;;;6.65;1.90;;;16.50;54.40;;;;;;4912017;27;44854;-59
2023/12/16 08:27:01;;;;;;;3.25;1.30;;;16.50;54.40;;;;;;4900333;27;45058;-59
2023/12/16 08:29:29;;;;;;;3.97;1.40;;;16.50;54.20;;;;;;4898667;27;45323;-59
2023/12/16 08:32:08;;;;;;;5.00;1.50;;;16.50;53.90;;;;;;4911360;27;44963;-59
2023/12/16 08:34:42;;;;;;;7.25;1.90;;;16.50;53.90;;;;;;4930644;27;44910;-59
2023/12/16 08:37:09;;;;;;;4.00;1.50;;;16.50;54.80;;;;;;4913360;27;44837;-59
2023/12/16 08:39:38;;;;;;;7.78;1.70;;;16.50;55.70;;;;;;4936581;27;45543;-59
2023/12/16 08:44:45;;;;;;;5.80;1.65;;;16.60;56.70;;;;;;4914490;27;44849;-59
2023/12/16 08:47:14;;;;;;;3.30;1.20;;;16.60;57.20;;;;;;4917285;27;44909;-59
2023/12/16 08:49:44;;;;;;;3.20;1.25;;;16.50;57.20;;;;;;4908665;27;46237;-59
2023/12/16 08:52:11;;;;;;;5.30;1.40;;;16.60;57.50;;;;;;4915078;27;44846;-59
2023/12/16 08:54:40;;;;;;;7.00;1.45;;;16.50;57.50;;;;;;4887224;27;44856;-59
2023/12/16 08:57:08;;;;;;;3.47;1.30;;;16.50;58.00;;;;;;4922271;27;44959;-59
2023/12/16 08:59:35;;;;;;;6.50;1.50;;;16.50;58.30;;;;;;4913092;27;46818;-59
2023/12/16 09:02:17;;;;;;;4.10;1.05;;;16.60;58.80;;;;;;4902063;27;44866;-59
2023/12/16 09:04:46;;;;;;;5.05;1.50;;;16.60;59.00;;;;;;4914104;27;44866;-59
2023/12/16 09:07:25;;;;;;;4.90;1.10;;;16.60;59.10;;;;;;4911341;27;44847;-59
2023/12/16 09:09:54;;;;;;;4.68;1.10;;;16.60;59.50;;;;;;4913572;27;46637;-59
2023/12/16 09:12:29;;;;;;;4.13;1.27;;;16.60;59.80;;;;;;4880237;27;44946;-59
2023/12/16 09:14:58;;;;;;;3.60;1.45;;;16.60;60.00;;;;;;4917763;27;45140;-59
2023/12/16 09:17:29;;;;;;;4.95;1.20;;;16.60;60.00;;;;;;4926797;27;44911;-59
2023/12/16 09:19:56;;;;;;;4.72;1.02;;;16.60;60.00;;;;;;4901507;27;45956;-59
2023/12/16 09:22:26;;;;;;;2.60;1.33;;;16.60;60.00;;;;;;4897416;28;44936;-59
2023/12/16 09:24:53;;;;;;;4.15;1.20;;;16.60;60.30;;;;;;4910512;28;45021;-59
2023/12/16 09:27:21;;;;;;;4.30;1.38;;;16.60;60.50;;;;;;4907714;28;44902;-59
2023/12/16 09:29:48;;;;;;;5.57;1.35;;;16.60;60.50;;;;;;4895812;27;46558;-59
2023/12/16 09:32:15;;;;;;;4.53;1.40;;;16.60;60.80;;;;;;4893180;28;44842;-59
2023/12/16 09:34:43;;;;;;;4.28;1.33;;;16.60;60.80;;;;;;4898268;27;46589;-59
2023/12/16 09:37:28;;;;;;;3.83;1.30;;;16.60;60.90;;;;;;4901653;27;44937;-59
2023/12/16 09:40:23;;;;;;;6.68;1.63;;;16.60;60.90;;;;;;4922325;28;45257;-58
2023/12/16 09:42:52;;;;;;;3.35;1.33;;;16.60;60.90;;;;;;4918429;28;45086;-60
2023/12/16 09:45:19;;;;;;;6.32;1.40;;;16.60;60.60;;;;;;4910448;27;44680;-59
2023/12/16 09:54:09;;;;;;;3.30;1.48;;;16.60;57.60;;;;;;6025608;22;45798;-58
2023/12/16 09:57:03;;;;;;;5.25;1.67;;;16.70;57.30;;;;;;4792077;28;45555;-58
2023/12/16 09:59:42;;;;;;;3.88;1.73;;;16.60;56.60;;;;;;4773904;28;45579;-59
2023/12/16 10:02:32;;;;;;;4.90;1.23;;;16.70;56.70;;;;;;4794587;28;46576;-58
2023/12/16 10:05:16;;;;;;;3.75;1.30;;;16.70;56.30;;;;;;4811455;28;45275;-58
2023/12/16 10:08:09;;;;;;;6.40;1.60;;;16.60;55.90;;;;;;4808365;28;45280;-58
2023/12/16 10:10:39;;;;;;;7.53;1.60;;;16.60;55.90;;;;;;4802826;28;45319;-59
2023/12/16 10:17:02;;;;;;;5.18;1.45;;;16.60;55.60;;;;;;4770618;28;45379;-58
2023/12/16 10:19:29;;;;;;;6.70;1.30;;;16.60;55.60;;;;;;4807675;28;45805;-59
2023/12/16 10:22:20;;;;;;;5.80;1.52;;;16.60;56.00;;;;;;4799081;28;45530;-57
2023/12/16 10:25:21;;;;;;;3.97;1.23;;;16.70;56.80;;;;;;4823784;28;46244;-58
2023/12/16 10:28:11;;;;;;;6.05;1.52;;;16.70;58.10;;;;;;4832088;28;45383;-58
2023/12/16 10:30:39;;;;;;;7.07;1.60;;;16.70;58.30;;;;;;4811887;28;45318;-59
2023/12/16 10:33:53;;;;;;;5.68;1.65;;;16.80;58.60;;;;;;4841117;28;45456;-58
2023/12/16 10:36:32;;;;;;;5.13;1.70;;;16.80;59.10;;;;;;4817192;28;45475;-58
2023/12/16 10:39:24;;;;;;;6.85;1.70;;;16.80;59.20;;;;;;4811901;28;45240;-58
2023/12/16 10:42:10;;;;;;;6.80;1.38;;;16.80;59.60;;;;;;4808440;28;45385;-59
2023/12/16 10:44:52;;;;;;;5.35;1.00;;;16.90;59.80;;;;;;4822392;28;45666;-59
2023/12/16 10:47:49;;;;;;;4.38;1.35;;;16.90;59.60;;;;;;4803839;28;46122;-58
2023/12/16 10:50:31;;;;;;;6.50;1.55;;;16.90;59.80;;;;;;4798760;28;45894;-58
2023/12/16 10:53:25;;;;;;;3.08;1.30;;;16.90;60.10;;;;;;4799561;28;45495;-58
2023/12/16 10:56:13;;;;;;;3.88;1.10;;;16.90;60.40;;;;;;4817608;28;45152;-58
2023/12/16 11:02:40;;;;;;;4.57;1.40;;;16.90;60.60;;;;;;4812955;28;45409;-58
2023/12/16 11:05:31;;;;;;;7.53;1.60;;;16.90;60.80;;;;;;4844349;28;45360;-58
2023/12/16 11:08:11;;;;;;;5.20;1.30;;;16.90;60.90;;;;;;4823340;28;45381;-58
2023/12/16 11:10:41;;;;;;;3.75;1.10;;;16.90;61.20;;;;;;4808988;28;45858;-58
2023/12/16 11:13:17;;;;;;;5.35;1.38;;;16.90;61.20;;;;;;4787703;28;45349;-58
2023/12/16 11:26:02;;;;;;;5.72;1.40;;;16.80;61.70;;;;;;4792984;28;45410;-59
2023/12/16 11:28:55;;;;;;;4.03;1.38;;;16.80;61.40;;;;;;4803616;28;45577;-59
2023/12/16 11:31:35;;;;;;;3.45;1.17;;;16.90;61.20;;;;;;4812617;28;45187;-59
2023/12/16 11:34:39;;;;;;;6.25;1.63;;;16.90;61.50;;;;;;4821662;28;47105;-59
2023/12/16 11:37:46;;;;;;;4.20;1.10;;;16.90;61.40;;;;;;4810514;28;45607;-59
2023/12/16 11:40:42;;;;;;;5.18;1.42;;;16.90;61.20;;;;;;4812512;28;45334;-60
2023/12/16 11:45:50;;;;;;;6.65;1.63;;;16.90;61.40;;;;;;4808440;28;46360;-59
2023/12/16 11:48:18;;;;;;;3.70;1.40;;;16.90;61.70;;;;;;4818032;28;45955;-59
2023/12/16 11:51:00;;;;;;;4.53;1.20;;;16.90;61.60;;;;;;4800283;28;45287;-59
2023/12/16 11:53:50;;;;;;;5.85;1.35;;;16.90;61.70;;;;;;4816550;28;45450;-59
2023/12/16 11:56:35;;;;;;;3.45;1.00;;;16.90;61.90;;;;;;4833977;28;47061;-59
2023/12/16 11:59:02;;;;;;;6.45;1.63;;;16.90;61.90;;;;;;4832272;28;45348;-59
2023/12/16 12:01:44;;;;;;;2.25;0.95;;;16.90;62.10;;;;;;4844086;28;45508;-59
2023/12/16 12:04:13;;;;;;;5.50;1.42;;;16.90;62.30;;;;;;4820304;28;45421;-59
2023/12/16 12:06:50;;;;;;;3.00;1.48;;;16.90;62.20;;;;;;4824320;28;46548;-59
2023/12/16 12:12:31;;;;;;;3.45;1.13;;;16.90;62.10;;;;;;4781403;28;45255;-60
2023/12/16 12:14:57;;;;;;;2.97;1.25;;;16.90;62.10;;;;;;4798981;28;45327;-60
2023/12/16 12:17:42;;;;;;;4.63;1.27;;;16.90;62.10;;;;;;4795235;28;46471;-59
2023/12/16 12:20:12;;;;;;;4.32;1.38;;;16.90;62.10;;;;;;4800828;28;45479;-59
2023/12/16 12:23:01;;;;;;;2.97;1.02;;;16.90;62.00;;;;;;4814608;28;45481;-58
2023/12/16 12:26:08;;;;;;;5.78;1.20;;;16.90;62.00;;;;;;4810903;28;45569;-59
2023/12/16 12:28:45;;;;;;;4.32;1.33;;;16.90;62.00;;;;;;4811710;28;46338;-59
2023/12/16 12:31:40;;;;;;;5.80;1.45;;;16.90;61.90;;;;;;4797070;28;45392;-59
2023/12/16 12:34:08;;;;;;;3.50;1.13;;;16.90;62.10;;;;;;4810897;28;45638;-59
2023/12/16 12:37:09;;;;;;;3.92;1.15;;;16.90;62.20;;;;;;4800523;28;45547;-59
2023/12/16 12:39:58;;;;;;;5.13;1.08;;;16.90;62.20;;;;;;4803526;28;47573;-59
2023/12/16 12:42:45;;;;;;;5.65;1.10;;;16.90;62.10;;;;;;4795471;28;45167;-59
2023/12/16 12:45:33;;;;;;;8.23;1.40;;;16.90;62.20;;;;;;4790484;28;45466;-59
2023/12/16 12:48:53;;;;;;;4.68;1.33;;;16.90;62.40;;;;;;4794383;28;45456;-59
2023/12/16 12:51:52;;;;;;;5.68;1.27;;;16.90;62.40;;;;;;4808741;28;47284;-59
2023/12/16 12:54:22;;;;;;;2.80;1.10;;;16.90;62.50;;;;;;4811261;28;45449;-59
2023/12/16 12:56:50;;;;;;;4.40;1.15;;;16.90;62.50;;;;;;4802954;28;45775;-59
2023/12/16 12:59:17;;;;;;;6.50;1.35;;;16.90;62.40;;;;;;4799695;28;45893;-59
2023/12/16 13:01:56;;;;;;;4.82;1.17;;;16.90;62.50;;;;;;4813783;28;47554;-59
2023/12/16 13:04:22;;;;;;;3.47;1.02;;;16.90;62.50;;;;;;4799595;28;45628;-59
2023/12/16 13:07:23;;;;;;;3.50;1.30;;;16.90;62.60;;;;;;4828335;28;45566;-59
2023/12/16 13:09:55;;;;;;;5.05;1.10;;;16.90;62.70;;;;;;4816653;28;45446;-59
2023/12/16 13:12:45;;;;;;;5.68;1.40;;;16.90;62.70;;;;;;4800662;28;46580;-59
2023/12/16 13:15:11;;;;;;;2.50;0.98;;;16.90;62.70;;;;;;4798569;28;45578;-59
2023/12/16 13:17:51;;;;;;;5.30;1.10;;;16.90;62.70;;;;;;4814620;28;45411;-60
2023/12/16 13:20:18;;;;;;;3.38;1.20;;;16.90;62.80;;;;;;4800044;28;45379;-59
2023/12/16 13:22:45;;;;;;;5.80;1.40;;;16.90;62.80;;;;;;4805538;28;46207;-59
2023/12/16 13:25:12;;;;;;;2.78;0.95;;;16.90;62.90;;;;;;4813899;28;45445;-59
2023/12/16 13:27:39;;;;;;;5.30;1.10;;;16.90;62.90;;;;;;4833416;28;45232;-59
2023/12/16 13:30:21;;;;;;;3.08;1.13;;;16.90;63.00;;;;;;4796429;28;45541;-59
2023/12/16 13:35:30;;;;;;;5.53;1.50;;;16.90;63.10;;;;;;4788272;28;45487;-59
2023/12/16 13:37:57;;;;;;;2.45;0.85;;;16.90;63.20;;;;;;4792915;28;45372;-59
2023/12/16 13:40:54;;;;;;;3.65;1.15;;;16.90;63.30;;;;;;4805414;28;45517;-59
2023/12/16 13:43:36;;;;;;;4.32;1.20;;;16.90;63.30;;;;;;4803903;28;46622;-59
2023/12/16 13:46:16;;;;;;;3.97;1.20;;;16.90;63.10;;;;;;4805211;28;45382;-59
2023/12/16 13:54:10;;;;;;;3.75;1.20;;;16.90;63.20;;;;;;4806856;28;45607;-59
2023/12/16 13:57:04;;;;;;;5.38;1.42;;;16.90;63.30;;;;;;4809264;28;45230;-59
2023/12/16 13:59:41;;;;;;;3.58;0.88;;;16.90;63.30;;;;;;4804983;28;45457;-59
2023/12/16 14:02:28;;;;;;;5.78;1.50;;;17.00;63.30;;;;;;4791657;28;45558;-59
2023/12/16 14:05:41;;;;;;;3.58;1.30;;;16.90;63.40;;;;;;4791405;28;47356;-58
2023/12/16 14:08:08;;;;;;;6.28;1.17;;;16.90;63.40;;;;;;4795872;28;45228;-59
2023/12/16 14:11:02;;;;;;;5.57;1.13;;;16.90;63.50;;;;;;4814373;28;45565;-58
2023/12/16 14:13:29;;;;;;;4.30;1.05;;;16.90;63.60;;;;;;4807251;28;45481;-59
2023/12/16 14:16:06;;;;;;;3.95;1.55;;;16.90;63.70;;;;;;4793016;28;46023;-58
2023/12/16 14:18:54;;;;;;;5.22;1.33;;;16.90;63.90;;;;;;4814442;28;45344;-59
2023/12/16 14:21:45;;;;;;;1.98;0.90;;;16.90;64.00;;;;;;4811193;28;45361;-58
2023/12/16 14:24:43;;;;;;;4.55;1.60;;;16.90;64.00;;;;;;4801187;28;45469;-58
2023/12/16 14:27:29;;;;;;;2.78;1.38;;;16.90;64.00;;;;;;4807752;28;46139;-58
2023/12/16 14:30:19;;;;;;;4.00;1.27;;;16.90;64.00;;;;;;4780162;28;45473;-58
2023/12/16 14:33:08;;;;;;;4.72;1.15;;;16.90;64.00;;;;;;4803050;28;45440;-58
2023/12/16 14:35:44;;;;;;;4.00;1.15;;;16.90;63.90;;;;;;4791402;28;45431;-58